createdAt,value
2019-05-07T00:00:13.419Z,6.859436
2019-05-07T00:01:13.497Z,6.859436
2019-05-07T00:02:13.562Z,6.849365
2019-05-07T00:03:13.653Z,6.859436
2019-05-07T00:04:13.714Z,6.869507
2019-05-07T00:05:13.842Z,6.869507
2019-05-07T00:06:13.944Z,6.869507
2019-05-07T00:07:14.028Z,6.849365
2019-05-07T00:08:14.090Z,6.849365
2019-05-07T00:09:14.195Z,6.829224
2019-05-07T00:10:14.324Z,6.829224
2019-05-07T00:11:14.441Z,6.819153
2019-05-07T00:12:14.515Z,6.77887
2019-05-07T00:13:14.568Z,6.77887
2019-05-07T00:14:14.637Z,6.77887
2019-05-07T00:15:14.779Z,6.748657
2019-05-07T00:16:14.889Z,6.738586
2019-05-07T00:17:14.992Z,6.738586
2019-05-07T00:18:15.065Z,6.738586
2019-05-07T00:19:15.159Z,6.748657
2019-05-07T00:20:15.237Z,6.748657
2019-05-07T00:21:15.384Z,6.768799
2019-05-07T00:22:15.479Z,6.799011
2019-05-07T00:23:15.590Z,6.799011
2019-05-07T00:24:15.644Z,6.799011
2019-05-07T00:25:15.713Z,6.819153
2019-05-07T00:26:15.828Z,6.829224
2019-05-07T00:27:15.897Z,6.849365
2019-05-07T00:28:15.968Z,6.849365
2019-05-07T00:29:16.038Z,6.819153
2019-05-07T00:30:16.116Z,6.829224
2019-05-07T00:31:16.215Z,6.77887
2019-05-07T00:32:16.309Z,6.768799
2019-05-07T00:33:16.377Z,6.748657
2019-05-07T00:34:16.470Z,6.718445
2019-05-07T00:35:16.567Z,6.708374
2019-05-07T00:36:16.663Z,6.708374
2019-05-07T00:37:16.769Z,6.708374
2019-05-07T00:38:16.847Z,6.698303
2019-05-07T00:39:16.922Z,6.668091
2019-05-07T00:40:17.006Z,6.678162
2019-05-07T00:41:17.067Z,6.637878
2019-05-07T00:42:18.170Z,6.637878
2019-05-07T00:43:18.262Z,6.637878
2019-05-07T00:44:18.315Z,6.617737
2019-05-07T00:45:21.359Z,6.637878
2019-05-07T00:46:18.414Z,6.617737
2019-05-07T00:47:18.492Z,6.617737
2019-05-07T00:48:18.542Z,6.637878
2019-05-07T00:49:17.605Z,6.597595
2019-05-07T00:50:17.691Z,6.597595
2019-05-07T00:51:17.768Z,6.587524
2019-05-07T00:52:17.866Z,6.587524
2019-05-07T00:53:17.964Z,6.617737
2019-05-07T00:54:19.037Z,6.597595
2019-05-07T00:55:19.100Z,6.597595
2019-05-07T00:56:19.161Z,6.597595
2019-05-07T00:57:19.243Z,6.587524
2019-05-07T00:58:18.371Z,6.587524
2019-05-07T00:59:19.413Z,6.597595
2019-05-07T01:00:18.475Z,6.587524
2019-05-07T01:01:19.525Z,6.587524
2019-05-07T01:02:18.606Z,6.587524
2019-05-07T01:03:19.646Z,6.567383
2019-05-07T01:04:18.700Z,6.567383
2019-05-07T01:05:19.760Z,6.557312
2019-05-07T01:06:18.817Z,6.517029
2019-05-07T01:07:19.924Z,6.517029
2019-05-07T01:08:18.972Z,6.496887
2019-05-07T01:09:19.074Z,6.496887
2019-05-07T01:10:19.148Z,6.517029
2019-05-07T01:11:22.398Z,6.496887
2019-05-07T01:12:19.269Z,6.496887
2019-05-07T01:13:20.395Z,6.5271
2019-05-07T01:14:19.448Z,6.5271
2019-05-07T01:15:28.654Z,6.517029
2019-05-07T01:16:22.180Z,6.5271
2019-05-07T01:17:19.614Z,6.5271
2019-05-07T01:18:22.937Z,6.5271
2019-05-07T01:19:21.725Z,6.5271
2019-05-07T01:20:21.886Z,6.5271
2019-05-07T01:21:19.922Z,6.5271
2019-05-07T01:22:21.950Z,6.5271
2019-05-07T01:23:20.096Z,6.5271
2019-05-07T01:24:20.158Z,6.496887
2019-05-07T01:25:22.035Z,6.496887
2019-05-07T01:26:21.878Z,6.496887
2019-05-07T01:27:22.342Z,6.486816
2019-05-07T01:28:22.242Z,6.466675
2019-05-07T01:29:22.350Z,6.466675
2019-05-07T01:30:20.558Z,6.456604
2019-05-07T01:31:22.169Z,6.426392
2019-05-07T01:32:22.162Z,6.426392
2019-05-07T01:33:22.723Z,6.386108
2019-05-07T01:34:22.835Z,6.376038
2019-05-07T01:35:22.387Z,6.376038
2019-05-07T01:36:22.577Z,6.376038
2019-05-07T01:37:23.049Z,6.345825
2019-05-07T01:38:22.945Z,6.315613
2019-05-07T01:39:23.130Z,6.315613
2019-05-07T01:40:22.837Z,6.2854
2019-05-07T01:41:23.077Z,6.2854
2019-05-07T01:42:22.132Z,6.245117
2019-05-07T01:43:22.805Z,6.224976
2019-05-07T01:44:22.176Z,6.204834
2019-05-07T01:45:22.002Z,6.194763
2019-05-07T01:46:24.669Z,6.164551
2019-05-07T01:47:23.672Z,6.174622
2019-05-07T01:48:22.964Z,6.15448
2019-05-07T01:49:24.005Z,6.15448
2019-05-07T01:50:22.672Z,6.134338
2019-05-07T01:51:22.309Z,6.124268
2019-05-07T01:52:22.692Z,6.124268
2019-05-07T01:53:22.799Z,6.104126
2019-05-07T01:54:23.731Z,6.124268
2019-05-07T01:55:22.697Z,6.124268
2019-05-07T01:56:23.024Z,6.124268
2019-05-07T01:57:23.190Z,6.134338
2019-05-07T01:58:22.703Z,6.15448
2019-05-07T01:59:22.831Z,6.15448
2019-05-07T02:00:22.917Z,6.194763
2019-05-07T02:01:22.991Z,6.174622
2019-05-07T02:02:23.089Z,6.194763
2019-05-07T02:03:23.202Z,6.204834
2019-05-07T02:04:23.245Z,6.224976
2019-05-07T02:05:23.292Z,6.224976
2019-05-07T02:06:23.362Z,6.255188
2019-05-07T02:07:23.423Z,6.245117
2019-05-07T02:08:23.488Z,6.245117
2019-05-07T02:09:23.591Z,6.224976
2019-05-07T02:10:23.652Z,6.224976
2019-05-07T02:11:23.746Z,6.245117
2019-05-07T02:12:23.810Z,6.224976
2019-05-07T02:13:23.886Z,6.245117
2019-05-07T02:14:23.994Z,6.255188
2019-05-07T02:15:24.066Z,6.245117
2019-05-07T02:16:24.151Z,6.245117
2019-05-07T02:17:24.226Z,6.245117
2019-05-07T02:18:24.273Z,6.245117
2019-05-07T02:19:24.399Z,6.255188
2019-05-07T02:20:24.483Z,6.255188
2019-05-07T02:21:24.569Z,6.27533
2019-05-07T02:22:24.631Z,6.27533
2019-05-07T02:23:24.708Z,6.2854
2019-05-07T02:24:24.788Z,6.2854
2019-05-07T02:25:24.915Z,6.2854
2019-05-07T02:26:24.970Z,6.2854
2019-05-07T02:27:25.019Z,6.255188
2019-05-07T02:28:25.153Z,6.255188
2019-05-07T02:29:25.222Z,6.245117
2019-05-07T02:30:25.342Z,6.245117
2019-05-07T02:31:25.392Z,6.224976
2019-05-07T02:32:25.439Z,6.255188
2019-05-07T02:33:25.488Z,6.255188
2019-05-07T02:34:25.546Z,6.255188
2019-05-07T02:35:25.664Z,6.255188
2019-05-07T02:36:25.729Z,6.27533
2019-05-07T02:37:30.406Z,6.2854
2019-05-07T02:38:25.807Z,6.305542
2019-05-07T02:39:25.882Z,6.315613
2019-05-07T02:40:25.957Z,6.335754
2019-05-07T02:41:26.035Z,6.355896
2019-05-07T02:42:26.124Z,6.355896
2019-05-07T02:43:26.232Z,6.345825
2019-05-07T02:44:26.317Z,6.345825
2019-05-07T02:45:26.423Z,6.345825
2019-05-07T02:46:31.451Z,6.315613
2019-05-07T02:47:27.534Z,6.315613
2019-05-07T02:48:26.592Z,6.315613
2019-05-07T02:49:26.643Z,6.315613
2019-05-07T02:50:26.705Z,6.335754
2019-05-07T02:51:26.810Z,6.315613
2019-05-07T02:52:26.899Z,6.305542
2019-05-07T02:53:26.972Z,6.305542
2019-05-07T02:54:27.039Z,6.305542
2019-05-07T02:55:27.144Z,6.2854
2019-05-07T02:56:27.236Z,6.305542
2019-05-07T02:57:27.311Z,6.27533
2019-05-07T02:58:27.384Z,6.27533
2019-05-07T02:59:27.451Z,6.255188
2019-05-07T03:00:27.542Z,6.245117
2019-05-07T03:01:27.618Z,6.204834
2019-05-07T03:02:27.700Z,6.224976
2019-05-07T03:03:27.751Z,6.204834
2019-05-07T03:04:27.805Z,6.194763
2019-05-07T03:05:27.876Z,6.194763
2019-05-07T03:06:27.943Z,6.174622
2019-05-07T03:07:28.051Z,6.164551
2019-05-07T03:08:28.117Z,6.164551
2019-05-07T03:09:28.183Z,6.134338
2019-05-07T03:10:28.229Z,6.134338
2019-05-07T03:11:28.319Z,6.104126
2019-05-07T03:12:29.369Z,6.094055
2019-05-07T03:13:29.402Z,6.073914
2019-05-07T03:14:29.445Z,6.073914
2019-05-07T03:15:32.335Z,6.063843
2019-05-07T03:16:39.409Z,6.063843
2019-05-07T03:17:29.647Z,6.053772
2019-05-07T03:18:28.707Z,6.053772
2019-05-07T03:19:29.782Z,6.02356
2019-05-07T03:20:28.834Z,6.013489
2019-05-07T03:21:32.719Z,6.02356
2019-05-07T03:22:29.948Z,6.02356
2019-05-07T03:23:28.984Z,6.02356
2019-05-07T03:24:30.054Z,6.053772
2019-05-07T03:25:33.518Z,6.053772
2019-05-07T03:26:29.280Z,6.053772
2019-05-07T03:27:33.725Z,6.053772
2019-05-07T03:28:29.408Z,6.02356
2019-05-07T03:29:29.472Z,5.993347
2019-05-07T03:30:35.339Z,5.983276
2019-05-07T03:31:35.533Z,5.973206
2019-05-07T03:32:36.486Z,5.942993
2019-05-07T03:33:30.602Z,5.942993
2019-05-07T03:34:36.083Z,5.922852
2019-05-07T03:35:36.268Z,5.912781
2019-05-07T03:36:35.024Z,5.90271
2019-05-07T03:37:35.184Z,5.90271
2019-05-07T03:38:33.298Z,5.912781
2019-05-07T03:39:29.832Z,5.882568
2019-05-07T03:40:32.826Z,5.882568
2019-05-07T03:41:33.207Z,5.882568
2019-05-07T03:42:33.162Z,5.882568
2019-05-07T03:43:32.491Z,5.872498
2019-05-07T03:44:33.570Z,5.872498
2019-05-07T03:45:33.444Z,5.872498
2019-05-07T03:46:30.237Z,5.912781
2019-05-07T03:47:33.092Z,5.912781
2019-05-07T03:48:32.981Z,5.912781
2019-05-07T03:49:34.126Z,5.922852
2019-05-07T03:50:30.467Z,5.942993
2019-05-07T03:51:32.897Z,5.973206
2019-05-07T03:52:33.477Z,5.993347
2019-05-07T03:53:33.492Z,6.013489
2019-05-07T03:54:33.713Z,6.02356
2019-05-07T03:55:33.162Z,6.053772
2019-05-07T03:56:32.997Z,6.053772
2019-05-07T03:57:33.296Z,6.073914
2019-05-07T03:58:33.912Z,6.073914
2019-05-07T03:59:34.083Z,6.063843
2019-05-07T04:00:33.189Z,6.073914
2019-05-07T04:01:33.407Z,6.073914
2019-05-07T04:02:33.139Z,6.073914
2019-05-07T04:03:34.012Z,6.094055
2019-05-07T04:04:33.137Z,6.094055
2019-05-07T04:05:34.105Z,6.134338
2019-05-07T04:06:33.161Z,6.124268
2019-05-07T04:07:33.552Z,6.124268
2019-05-07T04:08:33.639Z,6.164551
2019-05-07T04:09:33.253Z,6.164551
2019-05-07T04:10:33.707Z,6.164551
2019-05-07T04:11:33.665Z,6.174622
2019-05-07T04:12:34.204Z,6.174622
2019-05-07T04:13:33.318Z,6.164551
2019-05-07T04:14:34.357Z,6.194763
2019-05-07T04:15:33.087Z,6.204834
2019-05-07T04:16:33.193Z,6.204834
2019-05-07T04:17:33.760Z,6.194763
2019-05-07T04:18:33.182Z,6.224976
2019-05-07T04:19:33.014Z,6.194763
2019-05-07T04:20:33.474Z,6.204834
2019-05-07T04:21:34.370Z,6.224976
2019-05-07T04:22:34.504Z,6.245117
2019-05-07T04:23:34.066Z,6.27533
2019-05-07T04:24:33.359Z,6.245117
2019-05-07T04:25:34.546Z,6.255188
2019-05-07T04:26:33.824Z,6.27533
2019-05-07T04:27:33.317Z,6.27533
2019-05-07T04:28:34.103Z,6.27533
2019-05-07T04:29:35.010Z,6.2854
2019-05-07T04:30:33.264Z,6.305542
2019-05-07T04:31:34.160Z,6.315613
2019-05-07T04:32:33.519Z,6.355896
2019-05-07T04:33:33.544Z,6.376038
2019-05-07T04:34:33.668Z,6.386108
2019-05-07T04:35:33.647Z,6.386108
2019-05-07T04:36:34.062Z,6.386108
2019-05-07T04:37:33.443Z,6.386108
2019-05-07T04:38:33.574Z,6.386108
2019-05-07T04:39:33.525Z,6.40625
2019-05-07T04:40:33.897Z,6.40625
2019-05-07T04:41:33.298Z,6.436462
2019-05-07T04:42:33.591Z,6.436462
2019-05-07T04:43:33.731Z,6.466675
2019-05-07T04:44:33.434Z,6.486816
2019-05-07T04:45:33.921Z,6.496887
2019-05-07T04:46:33.828Z,6.496887
2019-05-07T04:47:42.377Z,6.486816
2019-05-07T04:48:34.433Z,6.456604
2019-05-07T04:49:33.612Z,6.426392
2019-05-07T04:50:42.284Z,6.426392
2019-05-07T04:51:34.780Z,6.426392
2019-05-07T04:52:34.013Z,6.436462
2019-05-07T04:53:34.948Z,6.436462
2019-05-07T04:54:33.995Z,6.456604
2019-05-07T04:55:33.996Z,6.486816
2019-05-07T04:56:34.003Z,6.496887
2019-05-07T04:57:34.009Z,6.517029
2019-05-07T04:58:34.128Z,6.517029
2019-05-07T04:59:34.046Z,6.53717
2019-05-07T05:00:34.083Z,6.587524
2019-05-07T05:01:34.112Z,6.597595
2019-05-07T05:02:34.117Z,6.647949
2019-05-07T05:03:36.793Z,6.668091
2019-05-07T05:04:34.722Z,6.708374
2019-05-07T05:05:34.205Z,6.718445
2019-05-07T05:06:34.190Z,6.748657
2019-05-07T05:07:34.206Z,6.748657
2019-05-07T05:08:34.248Z,6.748657
2019-05-07T05:09:34.271Z,6.77887
2019-05-07T05:10:34.343Z,6.819153
2019-05-07T05:11:34.370Z,6.849365
2019-05-07T05:12:34.386Z,6.859436
2019-05-07T05:13:34.396Z,6.869507
2019-05-07T05:14:34.399Z,6.889648
2019-05-07T05:15:34.490Z,6.889648
2019-05-07T05:16:34.511Z,6.919861
2019-05-07T05:17:46.898Z,6.929932
2019-05-07T05:18:35.684Z,6.929932
2019-05-07T05:19:35.682Z,6.960144
2019-05-07T05:20:34.781Z,7.000427
2019-05-07T05:21:35.788Z,7.010498
2019-05-07T05:22:34.846Z,7.050781
2019-05-07T05:23:34.842Z,7.070923
2019-05-07T05:24:34.852Z,7.080994
2019-05-07T05:25:34.898Z,7.111206
2019-05-07T05:26:34.927Z,7.131348
2019-05-07T05:27:34.950Z,7.131348
2019-05-07T05:28:34.947Z,7.141418
2019-05-07T05:29:34.955Z,7.141418
2019-05-07T05:30:34.993Z,7.141418
2019-05-07T05:31:34.992Z,7.111206
2019-05-07T05:32:35.010Z,7.111206
2019-05-07T05:33:35.028Z,7.111206
2019-05-07T05:34:35.039Z,7.080994
2019-05-07T05:35:35.099Z,7.101135
2019-05-07T05:36:35.158Z,7.111206
2019-05-07T05:37:35.192Z,7.141418
2019-05-07T05:38:35.187Z,7.151489
2019-05-07T05:39:35.210Z,7.151489
2019-05-07T05:40:35.241Z,7.141418
2019-05-07T05:41:37.875Z,7.151489
2019-05-07T05:42:35.307Z,7.191772
2019-05-07T05:43:35.362Z,7.252197
2019-05-07T05:44:35.404Z,7.262268
2019-05-07T05:45:35.424Z,7.29248
2019-05-07T05:46:35.468Z,7.322693
2019-05-07T05:47:35.473Z,7.362976
2019-05-07T05:48:35.486Z,7.332764
2019-05-07T05:49:35.515Z,7.373047
2019-05-07T05:50:35.532Z,7.362976
2019-05-07T05:51:35.598Z,7.362976
2019-05-07T05:52:35.610Z,7.393188
2019-05-07T05:53:35.623Z,7.403259
2019-05-07T05:54:35.636Z,7.433472
2019-05-07T05:55:35.645Z,7.463684
2019-05-07T05:56:35.680Z,7.483826
2019-05-07T05:57:35.727Z,7.53418
2019-05-07T05:58:35.761Z,7.564392
2019-05-07T05:59:47.753Z,7.614746
2019-05-07T06:00:36.922Z,7.655029
2019-05-07T06:01:35.970Z,7.715454
2019-05-07T06:02:36.002Z,7.775879
2019-05-07T06:03:36.999Z,7.796021
2019-05-07T06:04:36.016Z,7.826233
2019-05-07T06:05:36.166Z,7.826233
2019-05-07T06:06:36.262Z,7.836304
2019-05-07T06:07:36.284Z,7.836304
2019-05-07T06:08:36.292Z,7.866516
2019-05-07T06:09:36.323Z,7.876587
2019-05-07T06:10:37.318Z,7.876587
2019-05-07T06:11:37.621Z,7.876587
2019-05-07T06:12:37.614Z,7.876587
2019-05-07T06:13:37.631Z,7.896729
2019-05-07T06:14:36.646Z,7.906799
2019-05-07T06:15:36.652Z,7.906799
2019-05-07T06:16:36.827Z,7.926941
2019-05-07T06:17:36.721Z,7.906799
2019-05-07T06:18:36.717Z,7.926941
2019-05-07T06:19:36.724Z,7.977295
2019-05-07T06:20:36.736Z,7.987366
2019-05-07T06:21:36.770Z,7.987366
2019-05-07T06:22:36.798Z,8.027649
2019-05-07T06:23:36.797Z,8.047791
2019-05-07T06:24:36.798Z,8.057861
2019-05-07T06:25:36.793Z,8.088074
2019-05-07T06:26:37.840Z,8.108215
2019-05-07T06:27:37.880Z,8.108215
2019-05-07T06:28:37.888Z,8.108215
2019-05-07T06:29:37.894Z,8.128357
2019-05-07T06:30:38.036Z,8.138428
2019-05-07T06:31:38.185Z,8.16864
2019-05-07T06:32:38.270Z,8.178711
2019-05-07T06:33:38.238Z,8.178711
2019-05-07T06:34:41.365Z,8.198853
2019-05-07T06:35:38.545Z,8.198853
2019-05-07T06:36:38.549Z,8.208923
2019-05-07T06:37:38.725Z,8.239136
2019-05-07T06:38:37.725Z,8.269348
2019-05-07T06:39:37.741Z,8.309631
2019-05-07T06:40:37.744Z,8.339844
2019-05-07T06:41:38.759Z,8.390198
2019-05-07T06:42:37.801Z,8.440552
2019-05-07T06:43:38.801Z,8.450623
2019-05-07T06:44:37.816Z,8.500977
2019-05-07T06:45:37.858Z,8.531189
2019-05-07T06:46:38.775Z,8.531189
2019-05-07T06:47:37.898Z,8.531189
2019-05-07T06:48:42.634Z,8.561401
2019-05-07T06:49:37.857Z,8.601685
2019-05-07T06:50:38.873Z,8.641968
2019-05-07T06:51:37.873Z,8.682251
2019-05-07T06:52:39.056Z,8.692322
2019-05-07T06:53:38.079Z,8.712463
2019-05-07T06:54:39.083Z,8.742676
2019-05-07T06:55:38.107Z,8.742676
2019-05-07T06:56:39.119Z,8.742676
2019-05-07T06:57:38.263Z,8.682251
2019-05-07T06:58:39.308Z,8.631897
2019-05-07T06:59:38.342Z,8.631897
2019-05-07T07:00:39.342Z,8.641968
2019-05-07T07:01:38.355Z,8.662109
2019-05-07T07:02:41.724Z,8.662109
2019-05-07T07:03:38.559Z,8.631897
2019-05-07T07:04:39.551Z,8.611755
2019-05-07T07:05:38.557Z,8.641968
2019-05-07T07:06:38.567Z,8.682251
2019-05-07T07:07:41.870Z,8.692322
2019-05-07T07:08:38.591Z,8.692322
2019-05-07T07:09:39.596Z,8.641968
2019-05-07T07:10:38.644Z,8.591614
2019-05-07T07:11:39.668Z,8.54126
2019-05-07T07:12:38.636Z,8.571472
2019-05-07T07:13:39.689Z,8.591614
2019-05-07T07:14:38.843Z,8.611755
2019-05-07T07:15:38.851Z,8.571472
2019-05-07T07:16:38.859Z,8.571472
2019-05-07T07:17:41.433Z,8.591614
2019-05-07T07:18:49.372Z,8.591614
2019-05-07T07:19:40.041Z,8.561401
2019-05-07T07:20:39.081Z,8.571472
2019-05-07T07:21:39.084Z,8.601685
2019-05-07T07:22:39.084Z,8.641968
2019-05-07T07:23:39.120Z,8.692322
2019-05-07T07:24:39.136Z,8.712463
2019-05-07T07:25:40.179Z,8.752747
2019-05-07T07:26:39.176Z,8.823242
2019-05-07T07:27:40.240Z,8.903809
2019-05-07T07:28:39.303Z,8.974304
2019-05-07T07:29:39.302Z,9.034729
2019-05-07T07:30:39.298Z,9.115295
2019-05-07T07:31:39.353Z,9.155579
2019-05-07T07:32:39.391Z,9.256287
2019-05-07T07:33:39.432Z,9.29657
2019-05-07T07:34:39.427Z,9.326782
2019-05-07T07:35:42.635Z,9.356995
2019-05-07T07:36:39.448Z,9.367065
2019-05-07T07:37:42.713Z,9.397278
2019-05-07T07:38:41.934Z,9.447632
2019-05-07T07:39:39.769Z,9.477844
2019-05-07T07:40:42.001Z,9.508057
2019-05-07T07:41:41.854Z,9.487915
2019-05-07T07:42:39.905Z,9.558411
2019-05-07T07:43:41.901Z,9.669189
2019-05-07T07:44:39.979Z,9.80011
2019-05-07T07:45:41.994Z,9.920959
2019-05-07T07:46:42.185Z,10.061951
2019-05-07T07:47:42.074Z,10.1828
2019-05-07T07:48:40.125Z,10.253296
2019-05-07T07:49:42.032Z,10.343933
2019-05-07T07:50:42.093Z,10.454712
2019-05-07T07:51:42.621Z,10.4245
2019-05-07T07:52:42.004Z,10.454712
2019-05-07T07:53:42.463Z,10.394287
2019-05-07T07:54:42.565Z,10.233154
2019-05-07T07:55:42.574Z,10.273438
2019-05-07T07:56:49.741Z,10.333862
2019-05-07T07:57:42.701Z,10.43457
2019-05-07T07:58:41.910Z,10.565491
2019-05-07T07:59:42.099Z,10.706482
2019-05-07T08:00:42.671Z,10.756836
2019-05-07T08:01:42.086Z,10.646057
2019-05-07T08:02:42.380Z,10.666199
2019-05-07T08:03:41.668Z,10.766907
2019-05-07T08:04:42.575Z,10.817261
2019-05-07T08:05:42.695Z,10.917969
2019-05-07T08:06:41.966Z,10.998535
2019-05-07T08:07:42.554Z,11.119385
2019-05-07T08:08:42.421Z,11.099243
2019-05-07T08:09:42.724Z,11.069031
2019-05-07T08:10:42.503Z,10.978394
2019-05-07T08:11:42.485Z,10.917969
2019-05-07T08:12:42.154Z,10.867615
2019-05-07T08:13:42.448Z,10.978394
2019-05-07T08:14:42.645Z,11.119385
2019-05-07T08:15:42.962Z,11.230164
2019-05-07T08:16:42.891Z,11.270447
2019-05-07T08:17:41.941Z,11.159668
2019-05-07T08:18:43.509Z,11.119385
2019-05-07T08:19:42.824Z,11.18988
2019-05-07T08:20:42.993Z,11.340942
2019-05-07T08:21:42.181Z,11.340942
2019-05-07T08:22:42.426Z,11.401367
2019-05-07T08:23:42.419Z,11.653137
2019-05-07T08:24:42.788Z,11.985474
2019-05-07T08:25:42.686Z,12.398376
2019-05-07T08:26:42.926Z,12.650146
2019-05-07T08:27:42.366Z,12.781067
2019-05-07T08:28:42.390Z,12.841492
2019-05-07T08:29:43.076Z,13.063049
2019-05-07T08:30:42.550Z,13.264465
2019-05-07T08:31:42.614Z,13.314819
2019-05-07T08:32:42.858Z,13.314819
2019-05-07T08:33:42.804Z,13.284607
2019-05-07T08:34:42.937Z,13.163757
2019-05-07T08:35:43.018Z,13.032837
2019-05-07T08:36:43.162Z,12.9422
2019-05-07T08:37:43.264Z,12.911987
2019-05-07T08:38:43.298Z,12.881775
2019-05-07T08:39:43.308Z,12.630005
2019-05-07T08:40:43.338Z,12.579651
2019-05-07T08:41:43.355Z,12.609863
2019-05-07T08:42:43.363Z,12.650146
2019-05-07T08:43:43.363Z,12.69043
2019-05-07T08:44:44.349Z,12.760925
2019-05-07T08:45:43.421Z,12.760925
2019-05-07T08:46:43.403Z,12.760925
2019-05-07T08:47:43.419Z,12.650146
2019-05-07T08:48:43.445Z,12.529297
2019-05-07T08:49:43.697Z,12.468872
2019-05-07T08:50:43.510Z,12.478943
2019-05-07T08:51:43.526Z,12.509155
2019-05-07T08:52:43.570Z,12.43866
2019-05-07T08:53:43.585Z,12.388306
2019-05-07T08:54:43.580Z,12.358093
2019-05-07T08:55:43.606Z,12.348022
2019-05-07T08:56:43.669Z,12.327881
2019-05-07T08:57:45.856Z,12.297668
2019-05-07T08:58:43.842Z,12.31781
2019-05-07T08:59:56.623Z,12.287598
2019-05-07T09:00:44.977Z,12.227173
2019-05-07T09:01:44.022Z,12.116394
2019-05-07T09:02:44.018Z,12.096252
2019-05-07T09:03:44.045Z,12.06604
2019-05-07T09:04:44.052Z,11.965332
2019-05-07T09:05:44.056Z,11.864624
2019-05-07T09:06:44.100Z,11.743774
2019-05-07T09:07:44.152Z,11.673279
2019-05-07T09:08:44.215Z,11.622925
2019-05-07T09:09:44.211Z,11.522217
2019-05-07T09:10:44.211Z,11.492004
2019-05-07T09:11:44.296Z,11.351013
2019-05-07T09:12:44.304Z,11.250305
2019-05-07T09:13:44.316Z,11.17981
2019-05-07T09:14:44.314Z,11.159668
2019-05-07T09:15:44.344Z,11.220093
2019-05-07T09:16:44.406Z,11.260376
2019-05-07T09:17:44.392Z,11.330872
2019-05-07T09:18:44.454Z,11.381226
2019-05-07T09:19:51.339Z,11.44165
2019-05-07T09:20:44.484Z,11.512146
2019-05-07T09:21:44.562Z,11.5625
2019-05-07T09:22:44.545Z,11.632996
2019-05-07T09:23:44.558Z,11.703491
2019-05-07T09:24:44.553Z,11.773987
2019-05-07T09:25:44.576Z,11.864624
2019-05-07T09:26:44.608Z,11.94519
2019-05-07T09:27:44.665Z,11.985474
2019-05-07T09:28:44.696Z,11.995544
2019-05-07T09:29:44.701Z,12.025757
2019-05-07T09:30:44.758Z,11.995544
2019-05-07T09:31:44.801Z,11.965332
2019-05-07T09:32:44.814Z,11.965332
2019-05-07T09:33:44.827Z,11.995544
2019-05-07T09:34:44.873Z,12.025757
2019-05-07T09:35:44.897Z,11.995544
2019-05-07T09:36:45.016Z,11.955261
2019-05-07T09:37:45.059Z,11.955261
2019-05-07T09:38:56.006Z,11.925049
2019-05-07T09:39:46.189Z,11.864624
2019-05-07T09:40:45.195Z,11.834412
2019-05-07T09:41:45.391Z,11.854553
2019-05-07T09:42:45.423Z,11.834412
2019-05-07T09:43:45.427Z,11.854553
2019-05-07T09:44:45.448Z,11.784058
2019-05-07T09:45:45.462Z,11.653137
2019-05-07T09:46:46.691Z,11.632996
2019-05-07T09:47:45.551Z,11.673279
2019-05-07T09:48:45.535Z,11.703491
2019-05-07T09:49:45.546Z,11.733704
2019-05-07T09:50:45.554Z,11.763916
2019-05-07T09:51:45.551Z,11.834412
2019-05-07T09:52:45.611Z,11.965332
2019-05-07T09:53:45.618Z,11.985474
2019-05-07T09:54:45.639Z,12.045898
2019-05-07T09:55:45.638Z,12.06604
2019-05-07T09:56:45.668Z,12.076111
2019-05-07T09:57:45.739Z,12.06604
2019-05-07T09:58:45.780Z,12.06604
2019-05-07T09:59:45.821Z,12.106323
2019-05-07T10:00:45.834Z,12.116394
2019-05-07T10:01:45.844Z,12.116394
2019-05-07T10:02:45.888Z,12.176819
2019-05-07T10:03:45.888Z,12.297668
2019-05-07T10:04:45.952Z,12.327881
2019-05-07T10:05:45.968Z,12.348022
2019-05-07T10:06:46.004Z,12.368164
2019-05-07T10:07:46.020Z,12.43866
2019-05-07T10:08:46.056Z,12.529297
2019-05-07T10:09:46.070Z,12.579651
2019-05-07T10:10:46.085Z,12.660217
2019-05-07T10:11:46.086Z,12.831421
2019-05-07T10:12:46.127Z,12.932129
2019-05-07T10:13:46.131Z,13.113403
2019-05-07T10:14:46.130Z,13.304749
2019-05-07T10:15:46.138Z,13.425598
2019-05-07T10:16:46.147Z,13.486023
2019-05-07T10:17:46.166Z,13.365173
2019-05-07T10:18:46.227Z,13.304749
2019-05-07T10:19:46.243Z,13.385315
2019-05-07T10:20:46.364Z,13.546448
2019-05-07T10:21:46.394Z,13.727722
2019-05-07T10:22:46.431Z,13.858643
2019-05-07T10:23:46.493Z,13.929138
2019-05-07T10:24:46.556Z,13.929138
2019-05-07T10:25:46.562Z,14.029846
2019-05-07T10:26:46.590Z,14.049988
2019-05-07T10:27:46.609Z,13.929138
2019-05-07T10:28:46.657Z,13.888855
2019-05-07T10:29:46.713Z,13.979492
2019-05-07T10:30:46.797Z,14.130554
2019-05-07T10:31:46.842Z,14.483032
2019-05-07T10:32:46.856Z,14.845581
2019-05-07T10:33:47.952Z,15.268555
2019-05-07T10:34:47.927Z,15.852661
2019-05-07T10:35:47.983Z,16.09436
2019-05-07T10:36:48.088Z,16.789246
2019-05-07T10:37:48.283Z,17.494202
2019-05-07T10:38:48.385Z,18.058167
2019-05-07T10:39:48.366Z,18.642273
2019-05-07T10:40:48.367Z,19.145813
2019-05-07T10:41:48.370Z,19.598999
2019-05-07T10:42:48.400Z,19.407654
2019-05-07T10:43:47.435Z,19.045105
2019-05-07T10:44:47.481Z,19.10553
2019-05-07T10:45:47.549Z,19.226379
2019-05-07T10:46:48.574Z,19.004822
2019-05-07T10:47:47.635Z,18.430786
2019-05-07T10:48:48.678Z,18.330078
2019-05-07T10:49:47.729Z,18.73291
2019-05-07T10:50:47.760Z,19.317017
2019-05-07T10:51:48.770Z,19.719849
2019-05-07T10:52:47.775Z,19.709778
2019-05-07T10:53:48.849Z,19.719849
2019-05-07T10:54:57.414Z,19.73999
2019-05-07T10:55:48.857Z,19.699707
2019-05-07T10:56:48.868Z,19.518433
2019-05-07T10:57:47.920Z,19.387512
2019-05-07T10:58:48.916Z,18.783264
2019-05-07T10:59:48.951Z,18.330078
2019-05-07T11:00:48.967Z,17.937317
2019-05-07T11:01:48.968Z,17.34314
2019-05-07T11:02:48.978Z,16.678467
2019-05-07T11:03:48.045Z,16.184998
2019-05-07T11:04:49.090Z,16.064148
2019-05-07T11:05:48.120Z,16.064148
2019-05-07T11:06:48.203Z,16.08429
2019-05-07T11:07:48.276Z,15.872803
2019-05-07T11:08:49.352Z,15.671387
2019-05-07T11:09:48.388Z,15.510254
2019-05-07T11:10:49.404Z,15.147705
2019-05-07T11:11:51.369Z,15.298767
2019-05-07T11:12:48.443Z,15.540466
2019-05-07T11:13:49.468Z,16.003723
2019-05-07T11:14:48.657Z,16.547546
2019-05-07T11:15:51.696Z,16.940308
2019-05-07T11:16:48.682Z,17.282715
2019-05-07T11:17:51.660Z,17.866821
2019-05-07T11:18:48.778Z,18.088379
2019-05-07T11:19:48.956Z,17.836609
2019-05-07T11:20:50.413Z,17.645264
2019-05-07T11:21:49.020Z,17.322998
2019-05-07T11:22:49.065Z,16.658325
2019-05-07T11:23:52.092Z,16.366272
2019-05-07T11:24:49.104Z,16.275635
2019-05-07T11:25:50.108Z,16.255493
2019-05-07T11:26:49.121Z,16.09436
2019-05-07T11:27:49.167Z,15.83252
2019-05-07T11:28:50.243Z,15.651245
2019-05-07T11:29:49.287Z,15.449829
2019-05-07T11:30:49.331Z,15.409546
2019-05-07T11:31:49.401Z,15.913086
2019-05-07T11:32:49.416Z,16.366272
2019-05-07T11:33:49.435Z,16.97052
2019-05-07T11:34:49.458Z,17.35321
2019-05-07T11:35:52.621Z,17.232361
2019-05-07T11:36:49.591Z,17.071228
2019-05-07T11:37:51.847Z,16.799316
2019-05-07T11:38:52.351Z,16.728821
2019-05-07T11:39:49.544Z,16.799316
2019-05-07T11:40:51.762Z,16.920166